KCDN

Woodward Field Airport

Camden, South Carolina, USA
METAR KCDN 141755Z AUTO 07007KT 9SM OVC005 13/12 A3007 RMK AO2
Observed Flight Rules
Dec-14 @ 17:55 UTC (20 minutes ago) Instrument Flight Rules
Wind Visibility Clouds
70° at 7 knots 9 miles
  • Overcast at 500' AGL
Temperatures Readings
Current 13°C / 55°F
Dewpoint 12°C / 54°F
Humidity 94%
Altimeter 30.07" Hg
Pressure 1018 hPa
Elevation 92
METAR KCDN 141755Z AUTO 07007KT 9SM OVC005 13/12 A3007 RMK AO2
Observed Flight Rules
Dec-14 @ 17:55 UTC
(20 minutes ago)
IFR
Wind Visibility
70° at 7 knots 9 miles
Clouds
  • Overcast at 500' AGL
Temperature Dewpoint
13°C / 55°F 12°C / 54°F
Humidity Altimeter Pressure
94% 30.07" Hg 1018 hPa